Time;durP1;ratioP1;P1;durP2;ratioP2;P2;SDS_P1;SDS_P2;PMS_P1;PMS_P2;Temp;Humidity;BMP_temperature;BMP_pressure;BME280_temperature;BME280_humidity;BME280_pressure;Samples;Min_cycle;Max_cycle;Signal;HPM_P1;HPM_P2
2023/03/17 00:03:48;;;;;;;1.70;1.30;;;;;10.70;100173.00;;;;9682346;30;20246;-80
2023/03/17 00:08:50;;;;;;;2.50;0.90;;;;;10.70;100170.00;;;;9701976;30;20218;-79
2023/03/17 00:13:52;;;;;;;1.63;1.10;;;;;10.70;100176.00;;;;9704015;30;20246;-80
2023/03/17 00:18:56;;;;;;;2.00;1.40;;;;;10.70;100176.00;;;;9703122;30;20455;-79
2023/03/17 00:23:59;;;;;;;2.17;1.00;;;;;10.60;100164.00;;;;9707326;30;20625;-80
2023/03/17 00:29:01;;;;;;;2.37;1.37;;;;;10.50;100159.00;;;;9763480;30;20264;-79
2023/03/17 00:34:04;;;;;;;1.83;1.07;;;;;10.50;100162.00;;;;9717336;30;20234;-78
2023/03/17 00:39:13;;;;;;;4.83;1.17;;;;;10.40;100160.00;;;;9731958;30;20234;-79
2023/03/17 00:44:13;;;;;;;3.17;1.23;;;;;10.50;100152.00;;;;9722061;30;20222;-80
2023/03/17 00:49:19;;;;;;;7.40;1.50;;;;;10.50;100149.00;;;;9696133;30;20207;-79
2023/03/17 00:54:22;;;;;;;1.97;1.40;;;;;10.50;100158.00;;;;9734816;30;20265;-79
2023/03/17 00:59:38;;;;;;;3.07;1.40;;;;;10.40;100170.00;;;;9739493;30;20298;-80
2023/03/17 01:04:44;;;;;;;1.73;1.20;;;;;10.40;100165.00;;;;9716061;30;20710;-79
2023/03/17 01:10:00;;;;;;;1.27;1.00;;;;;10.50;100174.00;;;;9730697;30;20212;-79
2023/03/17 01:15:02;;;;;;;1.60;1.03;;;;;10.40;100165.00;;;;9729273;30;20320;-79
2023/03/17 01:20:06;;;;;;;2.40;1.20;;;;;10.40;100168.00;;;;9715937;30;20218;-79
2023/03/17 01:25:10;;;;;;;2.90;1.43;;;;;10.40;100162.00;;;;9737373;30;20202;-81
2023/03/17 01:30:18;;;;;;;2.33;1.13;;;;;10.40;100147.00;;;;9743816;30;20237;-81
2023/03/17 01:35:21;;;;;;;1.57;1.20;;;;;10.30;100137.00;;;;9728769;30;20896;-80
2023/03/17 01:40:32;;;;;;;1.30;1.20;;;;;10.30;100126.00;;;;9691225;30;20799;-79
2023/03/17 01:46:11;;;;;;;2.90;1.27;;;;;10.40;100127.00;;;;9717382;30;20972;-80
2023/03/17 01:51:21;;;;;;;2.00;1.20;;;;;10.40;100126.00;;;;9721064;30;20876;-79
2023/03/17 01:56:23;;;;;;;3.63;1.30;;;;;10.40;100126.00;;;;9720301;30;20230;-80
2023/03/17 02:01:31;;;;;;;2.07;1.00;;;;;10.30;100126.00;;;;9701895;30;20206;-79
2023/03/17 02:06:34;;;;;;;4.83;1.20;;;;;10.30;100105.00;;;;9727777;30;20293;-80
2023/03/17 02:11:49;;;;;;;2.40;1.30;;;;;10.30;100106.00;;;;9704791;30;20340;-79
2023/03/17 02:16:51;;;;;;;3.97;1.47;;;;;10.30;100081.00;;;;9712630;30;20246;-79
2023/03/17 02:21:56;;;;;;;2.63;1.30;;;;;10.30;100084.00;;;;9700167;30;20238;-79
2023/03/17 02:27:07;;;;;;;1.77;1.17;;;;;10.20;100084.00;;;;9712534;30;20190;-79
2023/03/17 02:32:09;;;;;;;2.23;1.00;;;;;10.20;100084.00;;;;9726176;30;20223;-80
2023/03/17 02:37:12;;;;;;;1.83;1.10;;;;;10.20;100077.00;;;;9698571;30;20219;-78
2023/03/17 02:42:14;;;;;;;2.07;1.20;;;;;10.20;100084.00;;;;9692170;30;20218;-80
2023/03/17 02:47:16;;;;;;;1.87;1.10;;;;;10.10;100092.00;;;;9711242;30;20234;-79
2023/03/17 02:52:18;;;;;;;3.10;1.17;;;;;10.00;100097.00;;;;9739058;30;20603;-79
2023/03/17 02:57:20;;;;;;;2.03;1.10;;;;;10.00;100112.00;;;;9725251;30;20245;-80
2023/03/17 03:02:22;;;;;;;1.47;1.20;;;;;9.90;100107.00;;;;9753077;30;20797;-79
2023/03/17 03:07:25;;;;;;;2.30;1.50;;;;;10.00;100117.00;;;;9725274;30;20206;-79
2023/03/17 03:12:27;;;;;;;1.30;0.97;;;;;9.90;100132.00;;;;9724674;30;20269;-79
2023/03/17 03:17:29;;;;;;;1.80;1.10;;;;;9.90;100124.00;;;;9708571;30;20294;-80
2023/03/17 03:22:31;;;;;;;2.17;1.10;;;;;9.90;100130.00;;;;9724117;30;20268;-80
2023/03/17 03:27:33;;;;;;;1.93;1.30;;;;;9.80;100120.00;;;;9739130;30;20234;-80
2023/03/17 03:32:36;;;;;;;1.53;1.10;;;;;9.80;100130.00;;;;9724240;30;20222;-80
2023/03/17 03:37:39;;;;;;;1.33;1.20;;;;;9.80;100132.00;;;;9707484;30;20222;-79
2023/03/17 03:42:41;;;;;;;3.87;1.13;;;;;9.90;100134.00;;;;9721966;30;20309;-78
2023/03/17 03:47:44;;;;;;;2.50;1.20;;;;;10.10;100122.00;;;;9751770;30;20214;-80
2023/03/17 03:52:46;;;;;;;1.47;1.20;;;;;10.20;100127.00;;;;9723357;30;20234;-80
2023/03/17 03:57:48;;;;;;;4.20;1.40;;;;;10.30;100119.00;;;;9728055;30;20227;-80
2023/03/17 04:02:50;;;;;;;2.23;1.70;;;;;10.30;100125.00;;;;9701925;30;20253;-80
2023/03/17 04:07:52;;;;;;;2.60;1.40;;;;;10.30;100116.00;;;;9716364;30;20207;-80
2023/03/17 04:12:55;;;;;;;2.37;1.30;;;;;10.40;100131.00;;;;9709909;30;20261;-80
2023/03/17 04:17:57;;;;;;;2.87;1.50;;;;;10.30;100128.00;;;;9751258;30;20233;-80
2023/03/17 04:22:59;;;;;;;3.27;1.63;;;;;10.30;100126.00;;;;9722601;30;20738;-79
2023/03/17 04:28:01;;;;;;;2.73;1.80;;;;;10.30;100143.00;;;;9708591;30;20667;-79
2023/03/17 04:33:03;;;;;;;2.90;1.80;;;;;10.20;100134.00;;;;9723535;30;20222;-80
2023/03/17 04:38:05;;;;;;;3.40;1.70;;;;;10.10;100134.00;;;;9703486;30;20301;-79
2023/03/17 04:43:09;;;;;;;5.07;1.77;;;;;10.00;100136.00;;;;9709514;30;20750;-80
2023/03/17 04:48:11;;;;;;;4.53;1.80;;;;;9.90;100136.00;;;;9736025;30;20202;-80
2023/03/17 04:53:13;;;;;;;2.70;1.70;;;;;9.70;100136.00;;;;9708939;30;20238;-80
2023/03/17 04:58:15;;;;;;;5.67;1.87;;;;;9.60;100133.00;;;;9722970;30;20210;-80
2023/03/17 05:03:32;;;;;;;2.97;1.73;;;;;9.30;100136.00;;;;9725535;30;20221;-80
2023/03/17 05:08:34;;;;;;;3.27;1.40;;;;;9.20;100137.00;;;;9710696;30;20273;-78
2023/03/17 05:13:36;;;;;;;2.70;1.63;;;;;9.10;100140.00;;;;9743764;30;20261;-78
2023/03/17 05:18:38;;;;;;;3.67;1.33;;;;;9.00;100139.00;;;;9743009;30;20672;-78
2023/03/17 05:23:40;;;;;;;3.47;1.30;;;;;9.00;100133.00;;;;9714386;30;20210;-79
2023/03/17 05:28:42;;;;;;;2.13;1.70;;;;;9.00;100147.00;;;;9713756;30;20241;-79
2023/03/17 05:33:45;;;;;;;3.40;1.57;;;;;9.00;100142.00;;;;9727926;30;20230;-79
2023/03/17 05:38:47;;;;;;;4.37;1.60;;;;;9.00;100138.00;;;;9714126;30;20206;-79
2023/03/17 05:43:49;;;;;;;2.93;1.40;;;;;9.10;100147.00;;;;9699836;30;20235;-79
2023/03/17 05:48:52;;;;;;;2.20;1.23;;;;;9.10;100140.00;;;;9712179;30;20358;-79
2023/03/17 05:53:54;;;;;;;4.70;1.63;;;;;9.20;100125.00;;;;9732297;30;20242;-80
2023/03/17 05:58:56;;;;;;;5.30;1.60;;;;;9.20;100121.00;;;;9727730;30;20210;-80
2023/03/17 06:04:00;;;;;;;3.33;1.90;;;;;9.30;100120.00;;;;9727558;30;20215;-79
2023/03/17 06:09:02;;;;;;;7.83;1.90;;;;;9.40;100149.00;;;;9690930;30;20672;-80
2023/03/17 06:14:05;;;;;;;3.37;1.60;;;;;9.50;100156.00;;;;9724654;30;20348;-80
2023/03/17 06:19:07;;;;;;;3.80;1.80;;;;;9.50;100147.00;;;;9747714;30;20224;-81
2023/03/17 06:24:09;;;;;;;5.90;1.80;;;;;9.50;100137.00;;;;9716719;30;20272;-80
2023/03/17 06:29:11;;;;;;;4.47;1.67;;;;;9.60;100122.00;;;;9741396;30;20214;-80
2023/03/17 06:34:13;;;;;;;4.13;1.90;;;;;9.80;100124.00;;;;9740273;30;20222;-80
2023/03/17 06:39:17;;;;;;;3.77;2.10;;;;;9.90;100130.00;;;;9705331;30;20310;-80
2023/03/17 06:44:19;;;;;;;4.87;2.30;;;;;10.00;100130.00;;;;9728699;30;20790;-80
2023/03/17 06:49:20;;;;;;;8.10;2.60;;;;;10.20;100116.00;;;;9737240;30;20249;-79
2023/03/17 06:54:24;;;;;;;5.90;3.00;;;;;10.30;100114.00;;;;9726313;30;20234;-79
2023/03/17 06:59:26;;;;;;;5.97;2.37;;;;;10.40;100130.00;;;;9735155;30;20675;-80
2023/03/17 07:04:28;;;;;;;4.33;1.90;;;;;10.60;100129.00;;;;9697404;30;20238;-80
2023/03/17 07:09:33;;;;;;;2.93;1.50;;;;;10.70;100125.00;;;;9718754;30;20203;-80
2023/03/17 07:14:35;;;;;;;7.37;1.93;;;;;10.90;100121.00;;;;9690601;30;20253;-81
2023/03/17 07:19:37;;;;;;;5.70;1.73;;;;;11.10;100129.00;;;;9714692;30;20198;-81
2023/03/17 07:24:41;;;;;;;6.20;2.23;;;;;11.30;100131.00;;;;9711560;30;20230;-81
2023/03/17 07:29:44;;;;;;;6.13;2.00;;;;;11.50;100140.00;;;;9742315;30;20218;-80
2023/03/17 07:34:46;;;;;;;4.10;2.17;;;;;11.80;100152.00;;;;9717520;30;20300;-81
2023/03/17 07:39:48;;;;;;;3.40;2.63;;;;;12.20;100135.00;;;;9726639;30;20284;-81
2023/03/17 07:44:50;;;;;;;3.93;1.90;;;;;12.50;100113.00;;;;9710707;30;20587;-82
2023/03/17 07:49:52;;;;;;;5.10;2.50;;;;;13.10;100112.00;;;;9718409;30;20293;-82
2023/03/17 07:54:54;;;;;;;4.73;2.30;;;;;13.40;100113.00;;;;9714849;30;20257;-81
2023/03/17 07:59:57;;;;;;;4.87;2.37;;;;;13.80;100135.00;;;;9719862;30;20245;-81
2023/03/17 08:05:00;;;;;;;6.00;2.10;;;;;14.20;100142.00;;;;9720804;30;20546;-82
2023/03/17 08:10:07;;;;;;;3.43;1.90;;;;;14.50;100146.00;;;;9716136;30;20210;-81
2023/03/17 08:15:09;;;;;;;4.13;1.87;;;;;14.90;100140.00;;;;9728704;30;20222;-82
2023/03/17 08:20:12;;;;;;;3.80;2.10;;;;;15.00;100128.00;;;;9745037;30;20244;-81
2023/03/17 08:25:14;;;;;;;4.20;2.28;;;;;14.80;100117.00;;;;9770937;30;20593;-81
2023/03/17 08:30:16;;;;;;;3.53;2.10;;;;;14.40;100138.00;;;;9725188;30;20658;-83
2023/03/17 08:35:19;;;;;;;3.93;2.20;;;;;13.90;100139.00;;;;9695269;30;20238;-82
2023/03/17 08:40:22;;;;;;;4.87;2.03;;;;;13.90;100139.00;;;;9741275;30;20289;-82
2023/03/17 08:45:24;;;;;;;3.70;2.00;;;;;14.10;100130.00;;;;9727724;30;20253;-81
2023/03/17 08:50:26;;;;;;;4.67;2.30;;;;;14.30;100130.00;;;;9718271;30;20202;-79
2023/03/17 08:55:28;;;;;;;2.23;1.73;;;;;14.50;100146.00;;;;9726438;30;20330;-81
2023/03/17 09:00:31;;;;;;;2.70;2.00;;;;;14.30;100120.00;;;;9705786;30;20245;-82
2023/03/17 09:05:33;;;;;;;4.53;2.30;;;;;14.60;100125.00;;;;9724130;30;20226;-82
2023/03/17 09:10:39;;;;;;;11.90;3.20;;;;;14.20;100162.00;;;;9720205;30;20230;-81
2023/03/17 09:15:44;;;;;;;9.38;2.47;;;;;14.20;100137.00;;;;9707126;30;20241;-81
2023/03/17 09:20:46;;;;;;;5.63;2.30;;;;;14.30;100164.00;;;;9741758;30;20210;-81
2023/03/17 09:25:48;;;;;;;6.87;2.10;;;;;14.70;100188.00;;;;9731408;30;20635;-81
2023/03/17 09:30:56;;;;;;;4.03;2.25;;;;;14.90;100225.00;;;;9761737;30;20230;-80
2023/03/17 09:35:58;;;;;;;5.70;2.72;;;;;14.80;100206.00;;;;9711022;30;20250;-82
2023/03/17 09:41:16;;;;;;;8.20;3.22;;;;;14.90;100193.00;;;;9728096;30;20439;-81
2023/03/17 09:47:12;;;;;;;5.80;2.37;;;;;14.90;100182.00;;;;9716167;30;20336;-82
2023/03/17 09:52:17;;;;;;;8.25;2.30;;;;;15.20;100168.00;;;;9634804;30;20219;-82
2023/03/17 09:57:35;;;;;;;7.03;2.60;;;;;15.60;100177.00;;;;9713912;30;20222;-83
2023/03/17 10:02:37;;;;;;;5.50;2.40;;;;;16.60;100192.00;;;;9717114;30;20925;-83
2023/03/17 10:07:49;;;;;;;5.75;2.55;;;;;17.40;100185.00;;;;9728926;30;20209;-84
2023/03/17 10:13:04;;;;;;;5.00;2.60;;;;;17.90;100176.00;;;;9714206;30;20295;-80
2023/03/17 10:18:13;;;;;;;6.30;2.83;;;;;18.50;100170.00;;;;9732884;30;20217;-80
2023/03/17 10:23:19;;;;;;;6.95;2.40;;;;;19.30;100175.00;;;;9716082;30;20245;-79
2023/03/17 10:28:31;;;;;;;9.73;2.42;;;;;19.90;100170.00;;;;9717367;30;20229;-81
2023/03/17 10:33:33;;;;;;;6.25;2.30;;;;;19.90;100159.00;;;;9727214;30;20761;-81
2023/03/17 10:38:35;;;;;;;8.60;2.38;;;;;19.70;100171.00;;;;9734876;30;20232;-81
2023/03/17 10:43:46;;;;;;;11.10;2.35;;;;;20.10;100168.00;;;;9738000;30;20318;-81
2023/03/17 10:49:06;;;;;;;3.67;2.33;;;;;21.00;100161.00;;;;9732962;30;20296;-81
2023/03/17 10:54:16;;;;;;;8.50;3.05;;;;;21.50;100156.00;;;;9762530;30;20344;-82
2023/03/17 10:59:30;;;;;;;6.45;2.20;;;;;21.80;100151.00;;;;9741728;30;20210;-81
2023/03/17 11:04:41;;;;;;;7.63;2.55;;;;;21.80;100149.00;;;;9715076;30;20216;-80
2023/03/17 11:09:49;;;;;;;7.22;2.70;;;;;21.50;100143.00;;;;9750333;30;20213;-80
2023/03/17 11:15:05;;;;;;;5.20;2.47;;;;;21.70;100134.00;;;;9721600;30;20246;-80
2023/03/17 11:20:44;;;;;;;4.82;3.80;;;;;22.60;100130.00;;;;9723873;30;20210;-80
2023/03/17 11:25:54;;;;;;;3.83;2.75;;;;;23.20;100131.00;;;;9712928;30;20273;-81
2023/03/17 11:31:14;;;;;;;4.95;2.25;;;;;22.70;100128.00;;;;9735690;30;20213;-80
2023/03/17 11:36:51;;;;;;;8.65;4.18;;;;;22.30;100128.00;;;;9717543;30;20238;-80
2023/03/17 11:42:30;;;;;;;22.83;14.00;;;;;22.20;100119.00;;;;9710019;30;20199;-80
2023/03/17 11:47:54;;;;;;;4.95;2.30;;;;;22.70;100116.00;;;;9713850;30;20233;-81
2023/03/17 11:53:17;;;;;;;4.38;1.95;;;;;23.30;100114.00;;;;9751771;30;20230;-80
2023/03/17 11:58:37;;;;;;;6.15;2.25;;;;;23.40;100106.00;;;;9724661;30;20221;-81
2023/03/17 12:03:57;;;;;;;5.75;2.08;;;;;23.20;100118.00;;;;9729254;30;20222;-80
2023/03/17 12:09:08;;;;;;;6.35;2.40;;;;;23.00;100108.00;;;;9723401;30;20308;-81
2023/03/17 12:14:23;;;;;;;7.00;2.22;;;;;23.00;100111.00;;;;9728074;30;20228;-81
2023/03/17 12:19:32;;;;;;;7.00;2.88;;;;;23.30;100111.00;;;;9732712;30;20879;-81
2023/03/17 12:24:50;;;;;;;8.77;2.65;;;;;23.10;100103.00;;;;9751067;30;20250;-82
2023/03/17 12:29:57;;;;;;;7.00;3.00;;;;;23.20;100104.00;;;;9699269;30;20702;-81
2023/03/17 12:35:20;;;;;;;10.13;3.60;;;;;23.30;100104.00;;;;9692670;30;20253;-82
2023/03/17 12:40:30;;;;;;;7.13;2.97;;;;;23.30;100100.00;;;;9741260;30;20302;-82
2023/03/17 12:45:53;;;;;;;5.68;2.70;;;;;23.90;100088.00;;;;9720052;30;20226;-81
2023/03/17 12:51:18;;;;;;;4.85;2.72;;;;;24.10;100087.00;;;;9707323;30;20215;-81
2023/03/17 12:56:29;;;;;;;5.97;2.95;;;;;24.00;100079.00;;;;9692731;30;20644;-81
2023/03/17 13:01:31;;;;;;;8.40;3.22;;;;;24.10;100062.00;;;;9741536;30;20417;-81
2023/03/17 13:06:42;;;;;;;5.22;2.65;;;;;24.30;100050.00;;;;9730227;30;20214;-81
2023/03/17 13:11:47;;;;;;;3.33;2.15;;;;;24.20;100046.00;;;;9696740;30;20222;-81
2023/03/17 13:16:49;;;;;;;5.97;2.15;;;;;24.20;100044.00;;;;9753555;30;20245;-81
2023/03/17 13:22:11;;;;;;;5.72;1.80;;;;;23.80;100042.00;;;;9739871;30;20764;-80
2023/03/17 13:27:33;;;;;;;5.00;1.90;;;;;23.30;100038.00;;;;9720849;30;21452;-80
2023/03/17 13:32:37;;;;;;;4.00;1.63;;;;;23.20;100040.00;;;;9705414;30;20219;-80
2023/03/17 13:37:54;;;;;;;3.95;1.80;;;;;24.30;100015.00;;;;9730414;30;20320;-81
2023/03/17 13:43:22;;;;;;;3.42;1.73;;;;;25.20;100001.00;;;;9730850;30;20225;-80
2023/03/17 13:48:33;;;;;;;4.25;2.08;;;;;24.40;100002.00;;;;9749188;30;20213;-81
2023/03/17 13:53:43;;;;;;;3.28;1.73;;;;;24.30;100008.00;;;;9718752;30;20230;-81
2023/03/17 13:58:58;;;;;;;3.75;1.73;;;;;23.00;100013.00;;;;9726186;30;20218;-80
2023/03/17 14:04:05;;;;;;;3.53;1.60;;;;;22.60;100006.00;;;;9718071;30;20405;-81
2023/03/17 14:09:26;;;;;;;5.50;1.90;;;;;23.00;100004.00;;;;9736750;30;20214;-81
2023/03/17 14:15:06;;;;;;;4.45;2.15;;;;;23.10;100001.00;;;;9732140;30;20237;-80
2023/03/17 14:20:15;;;;;;;6.57;2.15;;;;;22.80;99998.00;;;;9689559;30;20215;-81
2023/03/17 14:25:21;;;;;;;5.72;2.08;;;;;22.40;99990.00;;;;9740018;30;20221;-80
2023/03/17 14:30:29;;;;;;;5.28;2.22;;;;;21.70;100000.00;;;;9742277;30;20242;-81
2023/03/17 14:35:34;;;;;;;4.35;2.05;;;;;21.20;99989.00;;;;9721815;30;20250;-80
2023/03/17 14:40:38;;;;;;;3.17;1.95;;;;;20.90;99991.00;;;;9706899;30;20272;-80
2023/03/17 14:45:52;;;;;;;4.78;2.15;;;;;20.90;100004.00;;;;9711137;30;20304;-81
2023/03/17 14:50:58;;;;;;;6.07;2.85;;;;;20.90;100018.00;;;;9735268;30;20214;-80
2023/03/17 14:56:01;;;;;;;3.13;2.03;;;;;20.80;100033.00;;;;9704301;30;20252;-80
2023/03/17 15:01:11;;;;;;;4.15;1.70;;;;;20.80;100005.00;;;;9739030;30;20210;-79
2023/03/17 15:06:32;;;;;;;4.15;1.98;;;;;20.70;100012.00;;;;9739264;30;20257;-79
2023/03/17 15:11:40;;;;;;;4.15;1.88;;;;;20.80;100013.00;;;;9713442;30;20214;-79
2023/03/17 15:16:53;;;;;;;4.97;2.33;;;;;20.30;100024.00;;;;9730817;30;20738;-79
2023/03/17 15:21:59;;;;;;;4.32;1.80;;;;;19.80;100029.00;;;;9722857;30;20206;-79
2023/03/17 15:27:13;;;;;;;4.88;2.10;;;;;19.40;100033.00;;;;9719613;30;20214;-80
2023/03/17 15:32:19;;;;;;;5.70;1.88;;;;;19.10;100042.00;;;;9720308;30;20225;-82
2023/03/17 15:37:26;;;;;;;5.38;1.92;;;;;18.90;100042.00;;;;9723074;30;20231;-82
2023/03/17 15:42:31;;;;;;;4.13;1.83;;;;;18.70;100037.00;;;;9732905;30;20567;-83
2023/03/17 15:47:36;;;;;;;17.38;2.83;;;;;18.50;100034.00;;;;9721421;30;20226;-81
2023/03/17 15:52:39;;;;;;;4.10;1.70;;;;;18.30;100043.00;;;;9707800;30;20218;-83
2023/03/17 15:57:41;;;;;;;5.57;1.98;;;;;18.10;100039.00;;;;9719177;30;20276;-82
2023/03/17 16:02:53;;;;;;;7.07;2.30;;;;;18.00;100043.00;;;;9740748;30;20263;-81
2023/03/17 16:07:56;;;;;;;6.57;1.70;;;;;17.80;100042.00;;;;9703227;30;20221;-80
2023/03/17 16:12:58;;;;;;;9.50;2.63;;;;;17.70;100044.00;;;;9738497;30;20313;-82
2023/03/17 16:18:03;;;;;;;5.32;2.17;;;;;17.60;100040.00;;;;9695839;30;20386;-82
2023/03/17 16:23:13;;;;;;;3.90;1.50;;;;;17.30;100036.00;;;;9736931;30;20314;-83
2023/03/17 16:28:22;;;;;;;4.95;2.00;;;;;17.10;100052.00;;;;9692987;30;20815;-82
2023/03/17 16:33:32;;;;;;;3.58;1.60;;;;;16.90;100053.00;;;;9724443;30;20256;-81
2023/03/17 16:38:34;;;;;;;7.88;2.28;;;;;16.80;100053.00;;;;9693835;30;20210;-82
2023/03/17 16:43:37;;;;;;;3.80;2.20;;;;;16.70;100062.00;;;;9729213;30;20242;-82
2023/03/17 16:48:39;;;;;;;4.60;1.92;;;;;16.50;100067.00;;;;9742040;30;20210;-81
2023/03/17 16:53:41;;;;;;;7.25;2.20;;;;;16.40;100078.00;;;;9710622;30;20218;-81
2023/03/17 16:58:44;;;;;;;4.32;2.22;;;;;16.20;100079.00;;;;9690058;30;20271;-81
2023/03/17 17:03:46;;;;;;;7.38;2.60;;;;;16.10;100087.00;;;;9720135;30;20226;-80
2023/03/17 17:08:49;;;;;;;6.03;2.50;;;;;16.00;100090.00;;;;9728599;30;20707;-80
2023/03/17 17:13:51;;;;;;;5.13;2.83;;;;;15.80;100093.00;;;;9726055;30;20252;-81
2023/03/17 17:18:54;;;;;;;5.68;2.78;;;;;15.70;100079.00;;;;9705774;30;20302;-81
2023/03/17 17:23:56;;;;;;;6.15;2.78;;;;;15.60;100097.00;;;;9699341;30;20222;-83
2023/03/17 17:28:58;;;;;;;7.88;2.95;;;;;15.50;100098.00;;;;9731114;30;20305;-81
2023/03/17 17:34:00;;;;;;;9.25;3.00;;;;;15.40;100095.00;;;;9723235;30;20512;-82
2023/03/17 17:39:04;;;;;;;7.00;2.78;;;;;15.40;100103.00;;;;9714576;30;20218;-80
2023/03/17 17:44:06;;;;;;;6.05;3.08;;;;;15.40;100098.00;;;;9713900;30;20227;-81
2023/03/17 17:49:10;;;;;;;5.70;3.35;;;;;15.30;100113.00;;;;9709807;30;20575;-81
2023/03/17 17:54:12;;;;;;;6.85;3.30;;;;;15.20;100108.00;;;;9729559;30;20238;-83
2023/03/17 17:59:14;;;;;;;8.70;3.58;;;;;15.10;100111.00;;;;9719277;30;20849;-82
2023/03/17 18:04:16;;;;;;;7.07;3.40;;;;;15.00;100111.00;;;;9721674;30;20265;-83
2023/03/17 18:09:18;;;;;;;10.65;4.15;;;;;14.90;100102.00;;;;9718908;30;20680;-81
2023/03/17 18:14:20;;;;;;;6.75;3.72;;;;;14.80;100107.00;;;;9739586;30;20230;-83
2023/03/17 18:19:22;;;;;;;7.30;3.80;;;;;14.70;100109.00;;;;9728592;30;20222;-83
2023/03/17 18:24:25;;;;;;;10.07;4.38;;;;;14.70;100115.00;;;;9754658;30;20220;-85
2023/03/17 18:29:28;;;;;;;6.23;3.87;;;;;14.60;100125.00;;;;9695439;30;20673;-82
2023/03/17 18:34:49;;;;;;;9.00;4.43;;;;;14.60;100127.00;;;;9742551;30;20695;-82
2023/03/17 18:39:51;;;;;;;6.50;4.33;;;;;14.60;100138.00;;;;9715754;30;20221;-83
2023/03/17 18:45:14;;;;;;;6.53;3.97;;;;;14.60;100132.00;;;;9718551;30;20261;-83
2023/03/17 18:50:17;;;;;;;8.27;4.77;;;;;14.60;100139.00;;;;9719238;30;20301;-83
2023/03/17 18:55:19;;;;;;;12.87;5.37;;;;;14.60;100149.00;;;;9723373;30;20568;-83
2023/03/17 19:00:24;;;;;;;7.03;4.87;;;;;14.60;100147.00;;;;9718363;30;20214;-82
2023/03/17 19:05:26;;;;;;;11.80;5.85;;;;;14.60;100155.00;;;;9721176;30;20268;-83
2023/03/17 19:10:28;;;;;;;10.23;5.17;;;;;14.70;100167.00;;;;9735034;30;20206;-83
2023/03/17 19:15:31;;;;;;;9.98;5.97;;;;;14.60;100163.00;;;;9727525;30;20253;-83
2023/03/17 19:20:35;;;;;;;10.20;5.80;;;;;14.60;100165.00;;;;9737738;30;20276;-83
2023/03/17 19:25:36;;;;;;;8.87;5.37;;;;;14.60;100164.00;;;;9687386;30;20305;-84
2023/03/17 19:30:39;;;;;;;9.27;5.77;;;;;14.60;100164.00;;;;9731225;30;20213;-83
2023/03/17 19:35:43;;;;;;;11.53;6.03;;;;;14.70;100160.00;;;;9723978;30;20234;-83
2023/03/17 19:40:45;;;;;;;11.53;6.23;;;;;14.70;100179.00;;;;9733172;30;20675;-84
2023/03/17 19:45:47;;;;;;;9.37;5.73;;;;;14.70;100191.00;;;;9734560;30;20243;-82
2023/03/17 19:50:49;;;;;;;12.70;6.20;;;;;14.60;100189.00;;;;9702205;30;20242;-82
2023/03/17 19:55:52;;;;;;;8.10;4.97;;;;;14.50;100190.00;;;;9720163;30;20679;-82
2023/03/17 20:00:54;;;;;;;10.70;5.70;;;;;14.40;100202.00;;;;9715228;30;20311;-81
2023/03/17 20:05:56;;;;;;;12.00;5.20;;;;;14.20;100207.00;;;;9716638;30;20214;-83
2023/03/17 20:10:58;;;;;;;10.07;5.90;;;;;14.10;100202.00;;;;9722661;30;20212;-83
2023/03/17 20:16:00;;;;;;;14.00;6.00;;;;;13.90;100209.00;;;;9725847;30;20276;-82
2023/03/17 20:21:04;;;;;;;9.20;5.60;;;;;13.80;100206.00;;;;9725584;30;20250;-82
2023/03/17 20:26:08;;;;;;;12.57;6.23;;;;;13.70;100205.00;;;;9717997;30;20214;-82
2023/03/17 20:31:10;;;;;;;8.73;5.27;;;;;13.60;100206.00;;;;9709245;30;20202;-82
2023/03/17 20:36:12;;;;;;;15.33;6.17;;;;;13.60;100206.00;;;;9708938;30;20232;-83
2023/03/17 20:41:17;;;;;;;15.97;7.07;;;;;13.60;100209.00;;;;9710580;30;21993;-83
2023/03/17 20:46:22;;;;;;;12.40;7.00;;;;;13.50;100205.00;;;;9704781;30;20230;-83
2023/03/17 20:51:25;;;;;;;14.43;7.17;;;;;13.50;100216.00;;;;9728358;30;20219;-82
2023/03/17 20:56:29;;;;;;;13.67;6.77;;;;;13.50;100225.00;;;;9739624;30;20226;-83
2023/03/17 21:01:34;;;;;;;13.83;6.43;;;;;13.40;100236.00;;;;9709178;30;20334;-82
2023/03/17 21:06:37;;;;;;;10.10;6.00;;;;;13.40;100244.00;;;;9740477;30;20324;-83
2023/03/17 21:11:39;;;;;;;13.20;6.63;;;;;13.40;100246.00;;;;9741350;30;20587;-83
2023/03/17 21:16:43;;;;;;;12.07;6.77;;;;;13.40;100247.00;;;;9712423;30;20893;-83
2023/03/17 21:21:45;;;;;;;13.00;6.03;;;;;13.50;100245.00;;;;9730360;30;20202;-83
2023/03/17 21:26:47;;;;;;;13.33;6.60;;;;;13.40;100228.00;;;;9723960;30;20216;-82
2023/03/17 21:31:49;;;;;;;10.87;6.50;;;;;13.40;100212.00;;;;9713007;30;20215;-82
2023/03/17 21:36:52;;;;;;;12.43;6.30;;;;;13.40;100218.00;;;;9738466;30;20226;-82
2023/03/17 21:41:54;;;;;;;14.00;6.37;;;;;13.10;100224.00;;;;9706151;30;20273;-82
2023/03/17 21:46:57;;;;;;;14.20;6.80;;;;;12.90;100238.00;;;;9722799;30;20762;-83
2023/03/17 21:51:59;;;;;;;11.63;7.10;;;;;12.90;100226.00;;;;9700666;30;20233;-83
2023/03/17 21:57:01;;;;;;;14.57;7.37;;;;;12.90;100231.00;;;;9711266;30;20241;-82
2023/03/17 22:02:04;;;;;;;15.00;6.97;;;;;12.90;100234.00;;;;9727050;30;21008;-82
2023/03/17 22:07:06;;;;;;;9.63;6.87;;;;;12.90;100228.00;;;;9698414;30;20223;-84
2023/03/17 22:12:09;;;;;;;11.77;5.70;;;;;12.90;100227.00;;;;9680547;30;20211;-83
2023/03/17 22:17:12;;;;;;;17.93;7.57;;;;;12.90;100238.00;;;;9970643;24;20329;-82
2023/03/17 22:22:47;;;;;;;12.30;7.05;;;;;12.90;100245.00;;;;9947366;24;21843;31
2023/03/17 22:27:49;;;;;;;17.87;7.30;;;;;12.90;100257.00;;;;9647599;30;21042;-85
2023/03/17 22:32:51;;;;;;;15.13;6.80;;;;;12.90;100254.00;;;;9634431;30;20216;-83
2023/03/17 22:37:53;;;;;;;13.53;6.50;;;;;12.80;100249.00;;;;9659356;30;20240;-83
2023/03/17 22:42:56;;;;;;;11.63;6.53;;;;;12.80;100260.00;;;;9646918;30;20222;-85
2023/03/17 22:47:58;;;;;;;12.37;7.20;;;;;12.70;100259.00;;;;9639239;30;20219;-84
2023/03/17 22:53:00;;;;;;;14.93;6.77;;;;;12.70;100255.00;;;;9653523;30;20208;-84
2023/03/17 23:10:16;;;;;;;15.03;8.57;;;;;12.60;100273.00;;;;11582978;24;20242;-80
2023/03/17 23:15:19;;;;;;;17.93;7.60;;;;;12.50;100268.00;;;;9651636;30;20274;-82
2023/03/17 23:20:23;;;;;;;15.40;8.03;;;;;12.50;100268.00;;;;10066585;25;20301;-84
2023/03/17 23:25:25;;;;;;;22.43;7.83;;;;;12.50;100265.00;;;;9641849;30;20261;-83
2023/03/17 23:30:31;;;;;;;17.77;9.13;;;;;12.40;100274.00;;;;9906405;24;21032;-82
2023/03/17 23:35:34;;;;;;;13.53;7.43;;;;;12.40;100290.00;;;;9954332;24;20239;-82
2023/03/17 23:40:36;;;;;;;19.80;7.73;;;;;12.40;100289.00;;;;9662282;30;20208;-83
2023/03/17 23:45:40;;;;;;;16.93;8.40;;;;;12.50;100307.00;;;;9644466;30;20255;-82
2023/03/17 23:50:42;;;;;;;15.87;8.53;;;;;12.40;100292.00;;;;9622138;30;20214;-82
2023/03/17 23:55:45;;;;;;;17.73;9.23;;;;;12.40;100300.00;;;;9659309;30;20227;-82
